createdAt,value
2023-06-10T00:01:25.608Z,99.90
2023-06-10T00:04:13.904Z,99.90
2023-06-10T00:07:02.178Z,99.90
2023-06-10T00:09:51.705Z,99.90
2023-06-10T00:12:40.079Z,99.90
2023-06-10T00:15:29.735Z,99.90
2023-06-10T00:18:18.556Z,99.90
2023-06-10T00:21:06.857Z,99.90
2023-06-10T00:23:56.372Z,99.90
2023-06-10T00:26:44.618Z,99.90
2023-06-10T00:29:32.858Z,99.90
2023-06-10T00:32:22.382Z,99.90
2023-06-10T00:35:11.473Z,99.90
2023-06-10T00:37:59.903Z,99.90
2023-06-10T00:40:48.388Z,99.90
2023-06-10T00:43:36.603Z,99.90
2023-06-10T00:46:28.074Z,99.90
2023-06-10T00:49:18.106Z,99.90
2023-06-10T00:52:08.654Z,99.90
2023-06-10T00:54:56.987Z,99.90
2023-06-10T00:57:46.826Z,99.90
2023-06-10T01:00:35.047Z,99.90
2023-06-10T01:03:23.377Z,99.90
2023-06-10T01:06:23.633Z,99.90
2023-06-10T01:09:18.009Z,99.90
2023-06-10T01:12:12.279Z,99.90
2023-06-10T01:15:01.699Z,99.90
2023-06-10T01:18:00.721Z,99.90
2023-06-10T01:20:51.740Z,99.90
2023-06-10T01:23:41.763Z,99.90
2023-06-10T01:26:34.336Z,99.90
2023-06-10T01:29:28.456Z,99.90
2023-06-10T01:32:20.850Z,99.90
2023-06-10T01:35:10.465Z,99.90
2023-06-10T01:38:00.489Z,99.90
2023-06-10T01:40:51.427Z,99.90
2023-06-10T01:43:39.846Z,99.90
2023-06-10T01:46:28.092Z,99.90
2023-06-10T01:49:16.565Z,99.90
2023-06-10T01:52:05.340Z,99.90
2023-06-10T01:54:53.536Z,99.90
2023-06-10T01:57:43.075Z,99.90
2023-06-10T02:00:31.373Z,99.90
2023-06-10T02:03:19.805Z,99.90
2023-06-10T02:06:08.214Z,99.90
2023-06-10T02:08:56.446Z,99.90
2023-06-10T02:11:44.673Z,99.90
2023-06-10T02:14:35.356Z,99.90
2023-06-10T02:17:24.313Z,99.90
2023-06-10T02:20:14.730Z,99.90
2023-06-10T02:23:02.932Z,99.90
2023-06-10T02:25:51.183Z,99.90
2023-06-10T02:28:39.420Z,99.90
2023-06-10T02:31:30.009Z,99.90
2023-06-10T02:34:18.298Z,99.90
2023-06-10T02:37:06.834Z,99.90
2023-06-10T02:39:55.023Z,99.90
2023-06-10T02:42:43.282Z,99.90
2023-06-10T02:45:31.502Z,99.90
2023-06-10T02:48:21.058Z,99.90
2023-06-10T02:51:09.277Z,99.90
2023-06-10T02:53:57.480Z,99.90
2023-06-10T02:56:45.664Z,99.90
2023-06-10T02:59:34.056Z,99.90
2023-06-10T03:02:22.686Z,99.90
2023-06-10T03:05:12.592Z,99.90
2023-06-10T03:08:00.921Z,99.90
2023-06-10T03:10:49.139Z,99.90
2023-06-10T03:13:37.332Z,99.90
2023-06-10T03:16:26.402Z,99.90
2023-06-10T03:19:14.684Z,99.90
2023-06-10T03:22:12.212Z,99.90
2023-06-10T03:25:00.853Z,99.90
2023-06-10T03:27:49.221Z,99.90
2023-06-10T03:30:37.461Z,99.90
2023-06-10T03:33:25.876Z,99.90
2023-06-10T03:36:14.379Z,99.90
2023-06-10T03:39:04.053Z,99.90
2023-06-10T03:41:52.532Z,99.90
2023-06-10T03:44:41.197Z,99.90
2023-06-10T03:47:35.928Z,99.90
2023-06-10T03:50:25.425Z,99.90
2023-06-10T03:53:13.604Z,99.90
2023-06-10T03:56:03.180Z,99.90
2023-06-10T03:58:51.416Z,99.90
2023-06-10T04:01:42.376Z,99.90
2023-06-10T04:04:31.085Z,99.90
2023-06-10T04:07:20.044Z,99.90
2023-06-10T04:10:09.776Z,99.90
2023-06-10T04:12:59.608Z,99.90
2023-06-10T04:15:47.832Z,99.90
2023-06-10T04:18:37.255Z,99.90
2023-06-10T04:21:25.849Z,99.90
2023-06-10T04:24:14.229Z,99.90
2023-06-10T04:27:02.649Z,99.90
2023-06-10T04:29:52.180Z,99.90
2023-06-10T04:32:40.443Z,99.90
2023-06-10T04:35:28.891Z,99.90
2023-06-10T04:38:17.088Z,99.90
2023-06-10T04:41:05.338Z,99.90
2023-06-10T04:43:54.675Z,99.90
2023-06-10T04:46:44.274Z,99.90
2023-06-10T04:49:32.570Z,99.90
2023-06-10T04:52:20.977Z,99.90
2023-06-10T04:55:11.160Z,99.90
2023-06-10T04:57:59.602Z,99.90
2023-06-10T05:00:47.861Z,99.90
2023-06-10T05:03:37.542Z,99.90
2023-06-10T05:06:26.028Z,99.90
2023-06-10T05:09:14.271Z,99.90
2023-06-10T05:12:03.285Z,99.90
2023-06-10T05:14:51.518Z,99.90
2023-06-10T05:17:39.866Z,99.90
2023-06-10T05:20:29.806Z,99.90
2023-06-10T05:23:18.180Z,99.90
2023-06-10T05:26:06.366Z,99.90
2023-06-10T05:28:54.801Z,99.90
2023-06-10T05:31:43.070Z,99.90
2023-06-10T05:34:31.365Z,99.90
2023-06-10T05:37:21.068Z,99.90
2023-06-10T05:40:10.699Z,99.90
2023-06-10T05:42:58.983Z,99.90
2023-06-10T05:45:47.270Z,99.90
2023-06-10T05:48:35.521Z,99.90
2023-06-10T05:51:23.824Z,99.90
2023-06-10T05:54:13.390Z,99.90
2023-06-10T05:57:01.632Z,99.90
2023-06-10T05:59:49.826Z,99.90
2023-06-10T06:02:38.099Z,99.90
2023-06-10T06:05:26.480Z,99.90
2023-06-10T06:08:18.380Z,99.90
2023-06-10T06:11:08.001Z,99.90
2023-06-10T06:13:57.073Z,99.90
2023-06-10T06:16:45.423Z,99.90
2023-06-10T06:19:33.644Z,99.90
2023-06-10T06:22:23.232Z,99.90
2023-06-10T06:25:11.807Z,99.90
2023-06-10T06:28:01.627Z,99.90
2023-06-10T06:30:49.887Z,99.90
2023-06-10T06:33:38.099Z,99.90
2023-06-10T06:36:26.343Z,99.90
2023-06-10T06:39:14.843Z,99.90
2023-06-10T06:42:03.809Z,99.90
2023-06-10T06:44:53.616Z,99.90
2023-06-10T06:47:41.867Z,99.90
2023-06-10T06:50:30.227Z,99.90
2023-06-10T06:53:18.434Z,99.90
2023-06-10T06:56:07.085Z,99.90
2023-06-10T06:58:57.818Z,99.90
2023-06-10T07:01:48.122Z,99.90
2023-06-10T07:04:36.425Z,99.90
2023-06-10T07:07:24.680Z,99.90
2023-06-10T07:10:13.157Z,99.90
2023-06-10T07:13:01.469Z,99.90
2023-06-10T07:15:50.586Z,99.90
2023-06-10T07:18:40.309Z,99.90
2023-06-10T07:21:29.607Z,99.90
2023-06-10T07:24:17.994Z,99.90
2023-06-10T07:27:08.278Z,99.90
2023-06-10T07:29:56.500Z,99.90
2023-06-10T07:32:45.358Z,99.90
2023-06-10T07:35:35.079Z,99.90
2023-06-10T07:38:23.397Z,99.90
2023-06-10T07:41:11.841Z,99.90
2023-06-10T07:44:00.146Z,99.90
2023-06-10T07:46:48.404Z,99.90
2023-06-10T07:49:36.683Z,99.90
2023-06-10T07:52:26.945Z,99.90
2023-06-10T07:55:15.163Z,99.90
2023-06-10T07:58:03.453Z,99.90
2023-06-10T08:00:51.807Z,99.90
2023-06-10T08:03:40.166Z,99.90
2023-06-10T08:06:28.495Z,99.90
2023-06-10T08:09:19.416Z,99.90
2023-06-10T08:12:09.592Z,99.90
2023-06-10T08:14:57.818Z,99.90
2023-06-10T08:17:46.534Z,99.90
2023-06-10T08:20:34.751Z,99.90
2023-06-10T08:23:23.232Z,99.90
2023-06-10T08:26:13.019Z,99.90
2023-06-10T08:29:01.239Z,99.90
2023-06-10T08:31:49.583Z,99.90
2023-06-10T08:34:37.906Z,99.90
2023-06-10T08:37:26.712Z,99.90
2023-06-10T08:40:15.276Z,99.90
2023-06-10T08:43:08.908Z,99.90
2023-06-10T08:46:01.725Z,99.90
2023-06-10T08:48:56.575Z,99.90
2023-06-10T08:51:45.111Z,99.90
2023-06-10T08:54:40.324Z,99.90
2023-06-10T08:57:29.230Z,99.90
2023-06-10T09:00:19.217Z,99.90
2023-06-10T09:03:10.236Z,99.90
2023-06-10T09:05:59.669Z,99.90
2023-06-10T09:08:48.355Z,99.90
2023-06-10T09:11:36.644Z,99.90
2023-06-10T09:14:25.314Z,99.90
2023-06-10T09:17:14.953Z,99.90
2023-06-10T09:20:03.950Z,99.90
2023-06-10T09:22:52.305Z,99.90
2023-06-10T09:25:41.481Z,99.90
2023-06-10T09:28:29.758Z,99.90
2023-06-10T09:31:19.673Z,99.90
2023-06-10T09:34:14.415Z,99.90
2023-06-10T09:37:02.684Z,99.90
2023-06-10T09:40:10.114Z,99.90
2023-06-10T09:43:00.751Z,99.90
2023-06-10T09:45:50.612Z,99.90
2023-06-10T09:48:43.713Z,99.90
2023-06-10T09:51:33.425Z,99.90
2023-06-10T09:54:22.464Z,99.90
2023-06-10T09:57:11.324Z,99.90
2023-06-10T10:00:01.288Z,99.90
2023-06-10T10:02:51.962Z,99.90
2023-06-10T10:05:41.015Z,99.90
2023-06-10T10:08:33.724Z,99.90
2023-06-10T10:11:24.263Z,99.90
2023-06-10T10:14:14.929Z,99.90
2023-06-10T10:17:04.167Z,99.90
2023-06-10T10:19:55.787Z,99.90
2023-06-10T10:22:45.770Z,99.90
2023-06-10T10:25:40.263Z,99.90
2023-06-10T10:28:36.243Z,99.90
2023-06-10T10:31:25.763Z,99.90
2023-06-10T10:34:17.989Z,99.90
2023-06-10T10:37:06.700Z,99.90
2023-06-10T10:39:55.272Z,99.90
2023-06-10T10:42:45.640Z,99.90
2023-06-10T10:45:35.231Z,99.90
2023-06-10T10:48:23.538Z,99.90
2023-06-10T10:51:11.900Z,99.90
2023-06-10T10:54:15.689Z,99.90
2023-06-10T10:57:14.739Z,99.90
2023-06-10T11:00:06.081Z,99.90
2023-06-10T11:02:57.249Z,99.90
2023-06-10T11:05:50.182Z,99.90
2023-06-10T11:08:49.675Z,99.90
2023-06-10T11:11:51.798Z,99.90
2023-06-10T11:14:57.965Z,99.90
2023-06-10T11:18:23.090Z,99.90
2023-06-10T11:21:11.393Z,99.90
2023-06-10T11:24:00.734Z,99.90
2023-06-10T11:26:49.029Z,99.90
2023-06-10T11:29:37.304Z,99.90
2023-06-10T11:32:28.655Z,99.90
2023-06-10T11:35:18.501Z,99.90
2023-06-10T11:38:06.746Z,99.90
2023-06-10T11:40:55.122Z,99.50
2023-06-10T11:43:45.249Z,98.70
2023-06-10T11:46:33.417Z,99.00
2023-06-10T11:49:23.044Z,99.00
2023-06-10T11:52:13.830Z,98.60
2023-06-10T11:55:02.469Z,98.20
2023-06-10T11:57:58.485Z,97.70
2023-06-10T12:00:48.304Z,97.70
2023-06-10T12:03:39.288Z,96.30
2023-06-10T12:06:27.965Z,95.60
2023-06-10T12:09:25.210Z,96.20
2023-06-10T12:12:15.213Z,96.00
2023-06-10T12:15:06.038Z,95.40
2023-06-10T12:17:54.395Z,95.30
2023-06-10T12:20:43.775Z,94.10
2023-06-10T12:23:32.058Z,94.30
2023-06-10T12:26:21.681Z,93.60
2023-06-10T12:29:21.654Z,94.10
2023-06-10T12:32:11.587Z,94.80
2023-06-10T12:35:05.226Z,94.70
2023-06-10T12:37:58.547Z,93.60
2023-06-10T12:40:46.778Z,93.50
2023-06-10T12:43:36.451Z,93.20
2023-06-10T12:46:25.567Z,93.70
2023-06-10T12:49:21.876Z,94.10
2023-06-10T12:52:10.198Z,94.00
2023-06-10T12:54:58.697Z,93.50
2023-06-10T12:57:51.227Z,93.50
2023-06-10T13:00:41.744Z,93.60
2023-06-10T13:03:29.966Z,94.30
2023-06-10T13:06:19.913Z,94.50
2023-06-10T13:09:11.544Z,92.90
2023-06-10T13:12:00.992Z,93.20
2023-06-10T13:14:49.836Z,92.60
2023-06-10T13:17:40.296Z,91.60
2023-06-10T13:20:28.582Z,92.30
2023-06-10T13:23:16.907Z,92.10
2023-06-10T13:26:05.820Z,92.00
2023-06-10T13:28:54.094Z,91.10
2023-06-10T13:31:42.467Z,91.30
2023-06-10T13:34:32.279Z,94.70
2023-06-10T13:37:20.649Z,94.80
2023-06-10T13:40:10.850Z,95.10
2023-06-10T13:42:59.175Z,94.00
2023-06-10T13:45:47.595Z,91.90
2023-06-10T13:48:36.427Z,93.50
2023-06-10T13:51:26.567Z,93.00
2023-06-10T13:54:16.601Z,93.90
2023-06-10T13:57:05.421Z,93.90
2023-06-10T13:59:53.945Z,92.90
2023-06-10T14:02:42.830Z,91.80
2023-06-10T14:05:32.281Z,89.70
2023-06-10T14:08:22.391Z,93.00
2023-06-10T14:11:10.519Z,98.00
2023-06-10T14:13:59.534Z,99.90
2023-06-10T14:16:47.734Z,99.90
2023-06-10T14:19:35.956Z,99.90
2023-06-10T14:22:24.110Z,99.90
2023-06-10T14:25:13.933Z,99.90
2023-06-10T14:28:02.309Z,99.90
2023-06-10T14:30:50.550Z,99.90
2023-06-10T14:33:38.838Z,99.90
2023-06-10T14:36:27.072Z,99.90
2023-06-10T14:39:15.289Z,99.90
2023-06-10T14:42:05.350Z,99.90
2023-06-10T14:44:53.592Z,99.90
2023-06-10T14:47:41.862Z,99.90
2023-06-10T14:50:30.104Z,99.90
2023-06-10T14:53:18.348Z,99.90
2023-06-10T14:56:06.937Z,99.90
2023-06-10T14:58:56.511Z,99.90
2023-06-10T15:01:44.762Z,99.90
2023-06-10T15:04:32.990Z,99.90
2023-06-10T15:07:21.573Z,99.90
2023-06-10T15:10:10.630Z,99.90
2023-06-10T15:12:59.408Z,99.90
2023-06-10T15:15:49.040Z,99.90
2023-06-10T15:18:37.361Z,99.90
2023-06-10T15:21:25.621Z,99.90
2023-06-10T15:24:13.870Z,99.90
2023-06-10T15:27:02.107Z,99.90
2023-06-10T15:29:50.307Z,99.90
2023-06-10T15:32:39.911Z,99.90
2023-06-10T15:35:28.327Z,99.90
2023-06-10T15:38:16.633Z,99.90
2023-06-10T15:41:04.868Z,99.90
2023-06-10T15:43:53.055Z,99.90
2023-06-10T15:46:41.354Z,99.90
2023-06-10T15:49:30.971Z,99.90
2023-06-10T15:52:19.506Z,99.90
2023-06-10T15:55:08.282Z,99.90
2023-06-10T15:57:58.120Z,99.90
2023-06-10T16:00:46.381Z,99.90
2023-06-10T16:03:35.127Z,99.90
2023-06-10T16:06:24.940Z,99.90
2023-06-10T16:09:13.161Z,99.90
2023-06-10T16:12:01.348Z,99.90
2023-06-10T16:14:49.582Z,99.90
2023-06-10T16:17:39.037Z,99.90
2023-06-10T16:20:27.313Z,99.90
2023-06-10T16:23:17.273Z,99.90
2023-06-10T16:26:05.486Z,99.90
2023-06-10T16:28:53.682Z,99.90
2023-06-10T16:31:42.202Z,99.90
2023-06-10T16:34:30.437Z,99.90
2023-06-10T16:37:18.755Z,99.90
2023-06-10T16:40:09.364Z,99.90
2023-06-10T16:42:57.589Z,99.90
2023-06-10T16:45:45.831Z,99.90
2023-06-10T16:48:34.049Z,99.90
2023-06-10T16:51:22.234Z,99.90
2023-06-10T16:54:10.562Z,99.90
2023-06-10T16:57:00.139Z,99.90
2023-06-10T16:59:51.394Z,99.90
2023-06-10T17:02:39.602Z,99.90
2023-06-10T17:05:27.898Z,99.90
2023-06-10T17:08:16.134Z,99.90
2023-06-10T17:11:04.388Z,99.90
2023-06-10T17:13:54.049Z,99.90
2023-06-10T17:16:42.383Z,99.90
2023-06-10T17:19:31.685Z,99.90
2023-06-10T17:22:20.718Z,99.90
2023-06-10T17:25:09.742Z,99.90
2023-06-10T17:27:58.165Z,99.90
2023-06-10T17:30:48.686Z,99.90
2023-06-10T17:33:36.893Z,99.90
2023-06-10T17:36:25.120Z,99.90
2023-06-10T17:39:14.323Z,99.90
2023-06-10T17:42:02.504Z,99.90
2023-06-10T17:44:50.737Z,99.90
2023-06-10T17:47:40.405Z,99.90
2023-06-10T17:50:29.146Z,99.90
2023-06-10T17:53:17.769Z,99.90
2023-06-10T17:56:06.242Z,99.90
2023-06-10T17:58:54.460Z,99.90
2023-06-10T18:01:42.719Z,99.90
2023-06-10T18:04:32.394Z,99.90
2023-06-10T18:07:21.037Z,99.90
2023-06-10T18:10:10.176Z,99.90
2023-06-10T18:12:58.687Z,99.90
2023-06-10T18:15:47.152Z,99.90
2023-06-10T18:18:35.422Z,99.90
2023-06-10T18:21:25.038Z,99.90
2023-06-10T18:24:13.376Z,99.90
2023-06-10T18:27:01.742Z,99.90
2023-06-10T18:29:49.918Z,99.90
2023-06-10T18:32:38.526Z,99.90
2023-06-10T18:35:26.852Z,99.90
2023-06-10T18:38:16.528Z,99.90
2023-06-10T18:41:04.782Z,99.90
2023-06-10T18:43:52.976Z,99.90
2023-06-10T18:46:41.362Z,99.90
2023-06-10T18:49:29.576Z,99.90
2023-06-10T18:52:17.881Z,99.90
2023-06-10T18:55:08.546Z,99.90
2023-06-10T18:57:56.945Z,99.90
2023-06-10T19:00:45.764Z,99.90
2023-06-10T19:03:34.320Z,99.90
2023-06-10T19:06:22.618Z,99.90
2023-06-10T19:09:11.144Z,99.90
2023-06-10T19:12:00.700Z,99.90
2023-06-10T19:14:48.947Z,99.90
2023-06-10T19:17:37.153Z,99.90
2023-06-10T19:20:25.405Z,99.90
2023-06-10T19:23:13.631Z,99.90
2023-06-10T19:26:01.955Z,99.90
2023-06-10T19:28:52.465Z,99.90
2023-06-10T19:31:40.724Z,99.90
2023-06-10T19:34:29.062Z,99.90
2023-06-10T19:37:17.475Z,99.90
2023-06-10T19:40:06.662Z,99.90
2023-06-10T19:42:54.927Z,99.90
2023-06-10T19:45:44.890Z,99.90
2023-06-10T19:48:33.092Z,99.90
2023-06-10T19:51:21.367Z,99.90
2023-06-10T19:54:09.611Z,99.90
2023-06-10T19:56:57.785Z,99.90
2023-06-10T19:59:46.046Z,99.90
2023-06-10T20:02:35.675Z,99.90
2023-06-10T20:05:24.425Z,99.90
2023-06-10T20:08:12.744Z,99.90
2023-06-10T20:11:01.077Z,99.90
2023-06-10T20:13:49.314Z,99.90
2023-06-10T20:16:37.611Z,99.90
2023-06-10T20:19:27.215Z,99.90
2023-06-10T20:22:17.191Z,99.90
2023-06-10T20:25:06.313Z,99.90
2023-06-10T20:27:54.558Z,99.90
2023-06-10T20:30:42.787Z,99.90
2023-06-10T20:33:31.328Z,99.90
2023-06-10T20:36:21.707Z,99.90
2023-06-10T20:39:09.961Z,99.90
2023-06-10T20:41:58.195Z,99.90
2023-06-10T20:44:46.581Z,99.90
2023-06-10T20:47:34.788Z,99.90
2023-06-10T20:50:23.216Z,99.90
2023-06-10T20:53:12.738Z,99.90
2023-06-10T20:56:02.051Z,99.90
2023-06-10T20:58:50.598Z,99.90
2023-06-10T21:01:38.961Z,99.90
2023-06-10T21:04:27.216Z,99.90
2023-06-10T21:07:15.610Z,99.90
2023-06-10T21:10:05.853Z,99.90
2023-06-10T21:12:54.051Z,99.90
2023-06-10T21:15:42.280Z,99.90
2023-06-10T21:18:32.559Z,99.90
2023-06-10T21:21:21.514Z,99.90
2023-06-10T21:24:10.093Z,99.90
2023-06-10T21:26:59.923Z,99.90
2023-06-10T21:29:48.659Z,99.90
2023-06-10T21:32:37.332Z,99.90
2023-06-10T21:35:25.607Z,99.90
2023-06-10T21:38:13.794Z,99.90
2023-06-10T21:41:02.009Z,99.90
2023-06-10T21:43:51.560Z,99.90
2023-06-10T21:46:39.875Z,99.90
2023-06-10T21:49:28.292Z,99.90
2023-06-10T21:52:16.658Z,99.90
2023-06-10T21:55:06.513Z,99.90
2023-06-10T21:57:54.772Z,99.90
2023-06-10T22:00:44.420Z,99.90
2023-06-10T22:03:33.653Z,99.90
2023-06-10T22:06:21.977Z,99.90
2023-06-10T22:09:10.166Z,99.90
2023-06-10T22:11:58.422Z,99.90
2023-06-10T22:14:47.131Z,99.90
2023-06-10T22:17:36.929Z,99.90
2023-06-10T22:20:26.044Z,99.90
2023-06-10T22:23:21.539Z,99.90
2023-06-10T22:26:09.743Z,99.90
2023-06-10T22:28:59.213Z,99.90
2023-06-10T22:31:47.569Z,99.90
2023-06-10T22:34:37.101Z,99.90
2023-06-10T22:37:25.429Z,99.90
2023-06-10T22:40:14.267Z,99.90
2023-06-10T22:43:02.488Z,99.90
2023-06-10T22:45:50.740Z,99.90
2023-06-10T22:48:39.098Z,99.90
2023-06-10T22:51:28.938Z,99.90
2023-06-10T22:54:17.143Z,99.90
2023-06-10T22:57:06.314Z,99.90
2023-06-10T22:59:54.484Z,99.90
2023-06-10T23:02:42.820Z,99.90
2023-06-10T23:05:31.072Z,99.90
2023-06-10T23:08:20.909Z,99.90
2023-06-10T23:11:09.139Z,99.90
2023-06-10T23:13:59.579Z,99.90
2023-06-10T23:16:47.909Z,99.90
2023-06-10T23:19:41.507Z,99.90
2023-06-10T23:22:32.395Z,99.90
2023-06-10T23:25:23.351Z,99.90
2023-06-10T23:28:11.405Z,99.90
2023-06-10T23:30:59.659Z,99.90
2023-06-10T23:33:50.682Z,99.90
2023-06-10T23:36:41.483Z,99.90
2023-06-10T23:39:29.747Z,99.90
2023-06-10T23:42:19.689Z,99.90
2023-06-10T23:45:09.148Z,99.90
2023-06-10T23:47:57.816Z,99.90
2023-06-10T23:50:46.074Z,99.90
2023-06-10T23:53:34.323Z,99.90
2023-06-10T23:56:23.372Z,99.90
2023-06-10T23:59:12.919Z,99.90
